Time;durP1;ratioP1;P1;durP2;ratioP2;P2;SDS_P1;SDS_P2;PMS_P1;PMS_P2;Temp;Humidity;BMP_temperature;BMP_pressure;BME280_temperature;BME280_humidity;BME280_pressure;Samples;Min_cycle;Max_cycle;Signal;HPM_P1;HPM_P2
2021/12/27 00:00:42;;;;;;;28.93;13.10;;;;;;;-11.05;96.73;100586.91;4967960;28;20292;-83
2021/12/27 00:03:11;;;;;;;24.03;12.37;;;;;;;-11.19;95.83;100588.53;4994979;28;21039;-84
2021/12/27 00:05:37;;;;;;;31.73;12.60;;;;;;;-11.10;97.15;100589.16;4977421;28;20712;-81
2021/12/27 00:08:04;;;;;;;32.37;13.97;;;;;;;-11.10;97.09;100588.25;4978377;28;20288;-85
2021/12/27 00:10:31;;;;;;;34.70;13.97;;;;;;;-11.07;98.04;100583.38;4993999;28;20666;-82
2021/12/27 00:12:58;;;;;;;32.53;13.87;;;;;;;-11.09;97.66;100590.94;4977428;28;20300;-83
2021/12/27 00:15:26;;;;;;;28.87;14.07;;;;;;;-11.11;97.29;100576.28;4965802;28;20289;-84
2021/12/27 00:17:54;;;;;;;31.60;16.03;;;;;;;-11.08;97.48;100579.94;4970608;28;20329;-82
2021/12/27 00:20:21;;;;;;;38.33;14.93;;;;;;;-11.04;97.57;100582.69;4986204;28;20342;-83
2021/12/27 00:22:49;;;;;;;34.77;16.43;;;;;;;-11.13;98.38;100573.66;5002514;28;20362;-83
2021/12/27 00:25:16;;;;;;;35.20;16.17;;;;;;;-11.10;99.12;100575.50;4987982;28;20301;-83
2021/12/27 00:27:43;;;;;;;30.27;13.97;;;;;;;-11.07;98.12;100568.94;4995525;28;20943;-83
2021/12/27 00:30:11;;;;;;;33.17;15.03;;;;;;;-11.08;97.97;100556.97;4972344;28;20385;-83
2021/12/27 00:32:40;;;;;;;32.43;15.90;;;;;;;-10.99;97.87;100553.25;4985089;28;20296;-84
2021/12/27 00:35:08;;;;;;;34.43;15.77;;;;;;;-11.01;97.81;100545.50;4968444;28;20300;-85
2021/12/27 00:37:35;;;;;;;32.90;15.23;;;;;;;-10.99;97.35;100553.25;4972154;28;20342;-84
2021/12/27 00:40:04;;;;;;;43.10;16.10;;;;;;;-10.97;96.58;100557.66;4967811;28;20300;-83
2021/12/27 00:42:30;;;;;;;35.77;17.90;;;;;;;-10.90;97.56;100557.25;4961416;28;20359;-82
2021/12/27 00:44:57;;;;;;;35.67;19.07;;;;;;;-10.90;97.32;100556.38;4969182;28;20308;-84
2021/12/27 00:47:24;;;;;;;36.13;16.97;;;;;;;-10.93;96.80;100554.53;4977064;28;20288;-83
2021/12/27 00:49:50;;;;;;;30.40;16.23;;;;;;;-11.05;96.45;100552.84;4958283;28;20423;-82
2021/12/27 00:52:17;;;;;;;38.23;17.27;;;;;;;-10.91;95.84;100552.94;4981656;28;20289;-83
2021/12/27 00:54:44;;;;;;;35.87;17.07;;;;;;;-10.97;96.65;100542.34;4984020;28;20338;-82
2021/12/27 00:57:11;;;;;;;38.27;16.30;;;;;;;-10.84;97.13;100537.25;4939362;28;1090788;-83
2021/12/27 00:59:38;;;;;;;39.60;17.77;;;;;;;-10.88;97.50;100532.72;4977341;28;20050;-83
2021/12/27 01:02:05;;;;;;;41.23;16.47;;;;;;;-10.69;97.17;100531.28;4987920;28;20300;-83
2021/12/27 01:04:33;;;;;;;36.77;16.60;;;;;;;-10.87;96.60;100526.81;4993970;28;20941;-82
2021/12/27 01:06:59;;;;;;;39.00;16.23;;;;;;;-10.84;96.94;100527.03;4988112;28;20303;-82
2021/12/27 01:10:02;;;;;;;32.67;15.50;;;;;;;-10.82;96.63;100524.56;4972695;28;20296;-83
2021/12/27 01:12:35;;;;;;;39.70;16.37;;;;;;;-10.80;97.06;100523.88;4997226;28;20297;-83
2021/12/27 01:17:46;;;;;;;38.57;15.83;;;;;;;-10.86;97.17;100525.16;4989341;28;20312;-84
2021/12/27 01:20:23;;;;;;;38.75;17.83;;;;;;;-10.89;96.63;100530.94;4976562;28;21082;-83
2021/12/27 01:22:51;;;;;;;38.25;17.35;;;;;;;-10.85;96.75;100526.91;4965149;28;20037;-82
2021/12/27 01:25:21;;;;;;;37.17;17.13;;;;;;;-10.82;96.92;100515.25;4978431;28;20133;-82
2021/12/27 01:27:50;;;;;;;35.17;17.13;;;;;;;-10.85;96.00;100512.47;4992967;28;20382;-82
2021/12/27 01:30:19;;;;;;;46.20;17.80;;;;;;;-10.82;96.85;100509.25;4984771;28;20284;-80
2021/12/27 01:32:54;;;;;;;37.53;17.10;;;;;;;-10.81;96.73;100504.25;4965107;28;20289;-82
2021/12/27 01:35:22;;;;;;;41.20;16.47;;;;;;;-10.73;96.81;100501.28;4977370;28;20300;-82
2021/12/27 01:37:50;;;;;;;37.03;17.80;;;;;;;-10.76;97.05;100507.09;4980706;28;20345;-82
2021/12/27 01:40:18;;;;;;;35.23;17.93;;;;;;;-10.81;96.97;100504.25;4971689;28;20310;-83
2021/12/27 01:43:08;;;;;;;38.63;19.77;;;;;;;-10.81;97.62;100508.47;4967235;28;20316;-83
2021/12/27 01:45:44;;;;;;;33.53;15.97;;;;;;;-10.86;97.15;100517.50;4966343;28;20351;-81
2021/12/27 01:48:13;;;;;;;33.23;16.07;;;;;;;-10.55;95.06;100504.94;4983482;28;20339;-82
2021/12/27 01:50:42;;;;;;;36.57;17.73;;;;;;;-10.48;96.58;100496.00;4964454;28;20288;-82
2021/12/27 01:53:10;;;;;;;34.10;15.83;;;;;;;-10.49;95.71;100495.13;4980347;28;20289;-82
2021/12/27 01:55:37;;;;;;;38.93;17.30;;;;;;;-10.54;94.26;100496.50;4990521;28;20296;-82
2021/12/27 01:58:05;;;;;;;42.07;17.50;;;;;;;-10.46;95.11;100497.84;4971612;28;20300;-82
2021/12/27 02:00:33;;;;;;;43.73;17.53;;;;;;;-10.46;95.16;100487.63;4979181;28;20300;-82
2021/12/27 02:03:00;;;;;;;43.73;17.77;;;;;;;-10.53;94.78;100498.25;5000463;28;20292;-82
2021/12/27 02:05:27;;;;;;;39.87;18.13;;;;;;;-10.64;95.54;100489.97;4981962;28;20284;-82
2021/12/27 02:07:53;;;;;;;44.73;19.40;;;;;;;-10.51;95.64;100491.56;4982497;28;20288;-82
2021/12/27 02:10:20;;;;;;;41.97;18.47;;;;;;;-10.52;93.79;100487.25;4982146;28;20285;-84
2021/12/27 02:12:47;;;;;;;36.23;16.93;;;;;;;-10.49;94.06;100492.56;4967576;28;20292;-82
2021/12/27 02:15:14;;;;;;;39.20;17.93;;;;;;;-10.56;94.75;100483.66;4975707;28;20297;-82
2021/12/27 02:17:42;;;;;;;43.60;19.30;;;;;;;-10.61;94.81;100482.47;4997825;28;20293;-82
2021/12/27 02:20:20;;;;;;;44.07;17.33;;;;;;;-10.59;95.32;100482.59;4967275;28;20300;-83
2021/12/27 02:22:48;;;;;;;40.30;17.57;;;;;;;-10.55;93.66;100469.22;4976617;28;20375;-83
2021/12/27 02:25:15;;;;;;;40.37;18.60;;;;;;;-10.47;94.67;100465.44;4980565;28;20345;-82
2021/12/27 02:27:43;;;;;;;39.87;18.53;;;;;;;-10.42;95.57;100453.84;4974527;28;20292;-84
2021/12/27 02:30:13;;;;;;;36.23;18.60;;;;;;;-10.60;95.29;100470.59;4985516;28;20284;-82
2021/12/27 02:32:47;;;;;;;34.40;17.27;;;;;;;-10.56;94.78;100459.78;4985940;28;20315;-81
2021/12/27 02:35:25;;;;;;;36.28;17.08;;;;;;;-10.53;95.95;100459.97;4970084;28;20343;-82
2021/12/27 02:37:53;;;;;;;38.17;18.60;;;;;;;-10.48;96.36;100453.47;4990948;28;20119;-82
2021/12/27 02:40:22;;;;;;;42.63;18.13;;;;;;;-10.52;96.01;100443.84;4977699;28;20295;-83
2021/12/27 02:43:11;;;;;;;39.27;17.07;;;;;;;-10.51;96.25;100449.06;4964685;28;20300;-83
2021/12/27 02:45:48;;;;;;;43.77;17.97;;;;;;;-10.61;97.04;100440.75;4993658;28;20296;-82
2021/12/27 02:48:17;;;;;;;43.00;18.57;;;;;;;-10.50;97.37;100439.75;4994131;28;20653;-83
2021/12/27 02:50:45;;;;;;;40.80;17.87;;;;;;;-10.46;96.76;100433.13;4994500;28;20292;-83
2021/12/27 02:53:13;;;;;;;35.60;17.93;;;;;;;-10.44;96.51;100429.88;4972396;28;20301;-82
2021/12/27 02:55:40;;;;;;;35.87;18.10;;;;;;;-10.49;96.22;100433.84;4972451;28;20474;-81
2021/12/27 02:58:07;;;;;;;42.60;17.50;;;;;;;-10.49;96.26;100432.97;4970675;28;20363;-82
2021/12/27 03:01:00;;;;;;;41.83;18.37;;;;;;;-10.38;95.65;100432.78;4969487;28;20311;-83
2021/12/27 03:03:27;;;;;;;37.00;17.60;;;;;;;-10.54;95.05;100430.13;4994492;28;20307;-83
2021/12/27 03:05:54;;;;;;;41.70;16.37;;;;;;;-10.51;95.24;100432.84;4992114;28;20296;-82
2021/12/27 03:08:22;;;;;;;39.07;17.07;;;;;;;-10.50;95.75;100434.63;4997228;28;20292;-82
2021/12/27 03:10:54;;;;;;;38.33;16.27;;;;;;;-10.34;94.90;100427.09;4992010;28;20300;-82
2021/12/27 03:13:35;;;;;;;46.13;18.07;;;;;;;-10.41;95.18;100413.88;4991273;28;20662;-83
2021/12/27 03:16:08;;;;;;;35.70;16.97;;;;;;;-10.36;96.08;100417.56;4996308;28;20284;-83
2021/12/27 03:18:36;;;;;;;37.47;15.03;;;;;;;-10.45;95.89;100402.56;4967713;28;20332;-82
2021/12/27 03:21:04;;;;;;;39.03;16.93;;;;;;;-10.35;96.01;100415.09;4962957;28;20951;-82
2021/12/27 03:23:31;;;;;;;36.40;18.27;;;;;;;-10.36;95.72;100413.31;4987491;28;20315;-83
2021/12/27 03:25:58;;;;;;;43.17;19.33;;;;;;;-10.48;95.35;100399.84;4988693;28;20301;-82
2021/12/27 03:28:25;;;;;;;36.30;16.20;;;;;;;-10.30;94.39;100405.16;4973577;28;20297;-82
2021/12/27 03:30:52;;;;;;;38.20;17.17;;;;;;;-10.31;94.73;100394.06;4994693;28;20376;-81
2021/12/27 03:33:23;;;;;;;40.93;18.57;;;;;;;-10.22;94.13;100392.00;4989254;28;20297;-82
2021/12/27 03:36:00;;;;;;;36.23;16.50;;;;;;;-10.17;94.77;100399.03;4968372;28;20302;-84
2021/12/27 03:38:29;;;;;;;43.63;18.13;;;;;;;-10.13;93.65;100403.53;4980868;28;20847;-83
2021/12/27 03:40:56;;;;;;;40.17;17.73;;;;;;;-10.12;92.66;100397.63;4968657;28;20977;-82
2021/12/27 03:43:23;;;;;;;39.17;17.03;;;;;;;-10.09;91.79;100390.13;4973140;28;20328;-82
2021/12/27 03:45:49;;;;;;;40.70;17.20;;;;;;;-9.95;90.70;100389.25;4990200;28;20292;-82
2021/12/27 03:48:16;;;;;;;42.03;18.37;;;;;;;-10.07;91.36;100396.22;4978568;28;20419;-83
2021/12/27 03:50:43;;;;;;;42.20;17.50;;;;;;;-10.10;92.51;100401.16;4977882;28;20301;-81
2021/12/27 03:53:10;;;;;;;43.07;16.60;;;;;;;-10.07;92.94;100396.22;4990412;28;20359;-81
2021/12/27 03:55:37;;;;;;;41.73;16.97;;;;;;;-10.01;92.11;100387.22;4985448;28;20300;-80
2021/12/27 03:58:08;;;;;;;38.10;16.90;;;;;;;-10.08;92.17;100386.81;4983769;28;20323;-81
2021/12/27 04:00:59;;;;;;;36.37;17.03;;;;;;;-10.09;91.48;100391.00;4979410;28;20292;-81
2021/12/27 04:03:27;;;;;;;37.87;17.03;;;;;;;-10.13;91.99;100381.44;4970159;28;20347;-82
2021/12/27 04:05:54;;;;;;;36.47;16.63;;;;;;;-10.09;92.40;100385.03;4979398;28;20342;-81
2021/12/27 04:08:22;;;;;;;70.67;25.73;;;;;;;-10.13;93.49;100383.97;4995493;28;21093;-82
2021/12/27 04:10:49;;;;;;;84.73;37.90;;;;;;;-10.08;92.14;100385.13;5004489;28;20304;-81
2021/12/27 04:13:21;;;;;;;57.93;27.50;;;;;;;-10.04;91.74;100386.19;4975030;28;20350;-80
2021/12/27 04:15:48;;;;;;;50.07;23.97;;;;;;;-9.94;91.28;100379.09;4976219;28;20293;-81
2021/12/27 04:18:16;;;;;;;45.63;20.57;;;;;;;-10.09;91.52;100382.47;4988095;28;20665;-81
2021/12/27 04:20:43;;;;;;;50.33;20.13;;;;;;;-10.15;92.16;100388.13;4975489;28;20300;-81
2021/12/27 04:23:10;;;;;;;41.87;19.50;;;;;;;-10.04;92.18;100383.63;4990803;28;20293;-80
2021/12/27 04:25:37;;;;;;;35.43;18.23;;;;;;;-10.15;91.91;100385.56;4966309;28;20288;-81
2021/12/27 04:28:03;;;;;;;40.53;19.30;;;;;;;-10.07;92.22;100383.47;4988402;28;20295;-81
2021/12/27 04:30:30;;;;;;;37.20;17.33;;;;;;;-10.04;89.62;100386.19;4983078;28;20292;-81
2021/12/27 04:32:57;;;;;;;40.80;16.83;;;;;;;-10.03;90.44;100383.69;4965581;28;20642;-81
2021/12/27 04:35:28;;;;;;;44.00;19.27;;;;;;;-10.04;91.03;100381.06;4971645;28;20310;-80
2021/12/27 04:37:55;;;;;;;42.83;20.37;;;;;;;-10.07;91.28;100369.00;4977928;28;20295;-81
2021/12/27 04:40:25;;;;;;;33.43;16.40;;;;;;;-10.08;90.74;100362.13;4972832;28;20293;-81
2021/12/27 04:42:57;;;;;;;40.27;18.33;;;;;;;-10.05;91.75;100358.88;4963965;28;20300;-81
2021/12/27 04:45:24;;;;;;;45.20;17.73;;;;;;;-10.19;92.66;100359.75;5006580;28;20339;-81
2021/12/27 04:47:51;;;;;;;44.23;19.70;;;;;;;-10.19;92.92;100352.09;4992049;28;20395;-82
2021/12/27 04:50:17;;;;;;;40.07;18.17;;;;;;;-10.22;92.26;100350.28;4968579;28;20705;-82
2021/12/27 04:52:45;;;;;;;37.87;17.57;;;;;;;-10.14;91.52;100355.81;4995393;28;20341;-80
2021/12/27 04:55:12;;;;;;;37.30;17.00;;;;;;;-10.22;92.07;100356.25;4985942;28;20284;-81
2021/12/27 04:57:39;;;;;;;39.97;18.70;;;;;;;-10.26;92.21;100346.66;4981082;28;20285;-80
2021/12/27 05:00:06;;;;;;;46.47;19.63;;;;;;;-10.16;91.13;100339.50;4975602;28;20875;-80
2021/12/27 05:02:33;;;;;;;39.10;17.60;;;;;;;-10.15;92.10;100341.28;4967933;28;20288;-80
2021/12/27 05:05:00;;;;;;;41.37;16.50;;;;;;;-10.13;90.99;100345.66;4991702;28;20292;-80
2021/12/27 05:07:26;;;;;;;38.33;17.73;;;;;;;-10.10;91.31;100343.25;4971093;28;20303;-81
2021/12/27 05:09:56;;;;;;;41.13;18.00;;;;;;;-10.11;90.85;100330.41;4982101;28;20793;-80
2021/12/27 05:12:22;;;;;;;37.23;18.00;;;;;;;-10.24;90.79;100336.56;4991412;28;20304;-80
2021/12/27 05:14:49;;;;;;;40.43;18.53;;;;;;;-10.23;92.16;100323.00;5001362;28;20343;-80
2021/12/27 05:17:16;;;;;;;42.67;18.27;;;;;;;-10.17;92.95;100319.84;4989435;28;20701;-81
2021/12/27 05:19:42;;;;;;;38.43;18.80;;;;;;;-10.18;92.85;100325.75;4990888;28;20293;-81
2021/12/27 05:22:09;;;;;;;36.93;17.07;;;;;;;-10.29;93.14;100325.19;4984730;28;20292;-80
2021/12/27 05:24:36;;;;;;;48.13;19.20;;;;;;;-10.28;92.95;100307.38;4980263;28;20296;-79
2021/12/27 05:27:03;;;;;;;37.70;18.13;;;;;;;-10.37;93.08;100306.00;4990241;23;20370;-89
2021/12/27 05:29:30;;;;;;;42.73;19.87;;;;;;;-10.38;93.33;100312.78;4970184;28;20800;-89
2021/12/27 05:32:01;;;;;;;37.63;18.67;;;;;;;-10.31;92.19;100314.00;4976355;28;20297;-88
2021/12/27 05:34:34;;;;;;;42.40;19.23;;;;;;;-10.28;93.30;100316.72;4976983;28;20923;-88
2021/12/27 05:37:02;;;;;;;38.27;19.17;;;;;;;-10.38;92.39;100325.53;4976612;28;20319;-89
2021/12/27 05:39:29;;;;;;;44.87;20.10;;;;;;;-10.33;91.61;100313.06;4974944;28;20296;-87
2021/12/27 05:41:56;;;;;;;43.23;19.50;;;;;;;-10.35;92.34;100299.28;4962772;28;20322;-88
2021/12/27 05:44:23;;;;;;;44.50;19.40;;;;;;;-10.22;92.37;100305.16;4974121;28;20301;-87
2021/12/27 05:46:49;;;;;;;39.53;16.73;;;;;;;-10.22;91.71;100304.31;4959410;28;20297;-88
2021/12/27 05:49:16;;;;;;;39.87;19.60;;;;;;;-10.26;92.07;100303.25;4961487;28;20281;-88
2021/12/27 05:51:43;;;;;;;43.00;18.30;;;;;;;-10.34;91.91;100309.63;4977941;28;20296;-87
2021/12/27 05:54:13;;;;;;;36.20;17.67;;;;;;;-10.32;93.56;100307.16;4973156;28;20301;-88
2021/12/27 05:56:43;;;;;;;41.67;18.13;;;;;;;-10.33;92.92;100310.50;4975044;28;20411;-86
2021/12/27 05:59:12;;;;;;;41.10;20.07;;;;;;;-10.42;93.38;100315.09;4977629;28;20304;-88
2021/12/27 06:01:39;;;;;;;40.07;18.53;;;;;;;-10.38;93.91;100310.22;4978721;28;20293;-87
2021/12/27 06:04:06;;;;;;;44.27;19.30;;;;;;;-10.45;93.43;100312.34;4976002;28;21010;-88
2021/12/27 06:06:33;;;;;;;44.77;18.27;;;;;;;-10.32;94.75;100300.38;4980038;28;20296;-88
2021/12/27 06:09:00;;;;;;;45.63;18.23;;;;;;;-10.29;93.36;100297.97;4993140;28;20289;-88
2021/12/27 06:11:27;;;;;;;36.43;17.17;;;;;;;-10.35;94.30;100294.19;4966413;28;20312;-88
2021/12/27 06:13:53;;;;;;;38.50;18.63;;;;;;;-10.29;93.35;100287.75;4975269;28;20687;-88
2021/12/27 06:16:20;;;;;;;39.77;17.20;;;;;;;-10.37;93.78;100291.56;4983154;28;20297;-88
2021/12/27 06:18:47;;;;;;;40.27;17.63;;;;;;;-10.31;93.19;100276.59;4972593;28;20845;-89
2021/12/27 06:21:15;;;;;;;42.47;19.10;;;;;;;-10.19;93.70;100284.00;4972562;28;20297;-88
2021/12/27 06:23:42;;;;;;;39.60;16.80;;;;;;;-10.19;92.00;100272.91;4973168;28;20673;-88
2021/12/27 06:26:09;;;;;;;36.63;17.53;;;;;;;-10.03;92.18;100283.19;4985026;28;20295;-87
2021/12/27 06:28:36;;;;;;;39.37;18.07;;;;;;;-10.13;92.25;100280.91;4979489;28;20293;-88
2021/12/27 06:31:02;;;;;;;39.63;17.83;;;;;;;-9.95;89.61;100284.47;4969975;28;20297;-89
2021/12/27 06:33:29;;;;;;;38.30;16.73;;;;;;;-10.06;91.02;100273.69;4954440;28;20295;-88
2021/12/27 06:35:58;;;;;;;44.00;17.00;;;;;;;-10.08;92.25;100267.63;4981912;28;20296;-89
2021/12/27 06:38:25;;;;;;;38.17;17.03;;;;;;;-10.01;92.57;100273.91;4975698;28;20754;-88
2021/12/27 06:40:52;;;;;;;39.53;17.67;;;;;;;-10.10;91.40;100270.84;4974664;28;20332;-89
2021/12/27 06:43:19;;;;;;;37.83;16.43;;;;;;;-9.97;91.78;100263.09;4982966;28;20304;-89
2021/12/27 06:45:46;;;;;;;42.33;18.93;;;;;;;-9.97;92.63;100270.75;4981223;28;20297;-88
2021/12/27 06:48:15;;;;;;;43.07;15.73;;;;;;;-9.89;93.09;100266.06;4958057;28;20296;-89
2021/12/27 06:50:42;;;;;;;36.10;17.23;;;;;;;-9.85;89.52;100266.28;4976511;28;20633;-90
2021/12/27 06:53:09;;;;;;;36.83;15.87;;;;;;;-9.74;89.15;100270.31;4961398;28;20292;-88
2021/12/27 06:55:41;;;;;;;41.37;17.53;;;;;;;-9.69;88.96;100263.75;4978132;28;20391;-89
2021/12/27 06:58:08;;;;;;;36.07;16.13;;;;;;;-9.68;90.28;100273.19;4957244;28;20362;-88
2021/12/27 07:00:35;;;;;;;40.43;16.60;;;;;;;-9.67;91.77;100267.31;4975487;28;20301;-88
2021/12/27 07:03:01;;;;;;;43.23;18.20;;;;;;;-9.76;90.64;100271.00;4961586;28;20327;-87
2021/12/27 07:05:28;;;;;;;36.93;17.00;;;;;;;-9.54;87.68;100278.16;4971834;28;20384;-87
2021/12/27 07:07:55;;;;;;;45.50;17.97;;;;;;;-9.60;88.92;100276.16;4977076;28;20370;-87
2021/12/27 07:10:27;;;;;;;37.40;18.13;;;;;;;-9.50;91.68;100263.09;4961808;28;20289;-84
2021/12/27 07:12:54;;;;;;;39.67;16.70;;;;;;;-9.56;88.50;100267.88;4969516;28;20324;-85
2021/12/27 07:15:20;;;;;;;44.30;18.53;;;;;;;-9.41;89.33;100275.47;4978677;28;20288;-84
2021/12/27 07:17:47;;;;;;;37.67;17.00;;;;;;;-9.44;91.05;100270.19;4961316;28;20296;-85
2021/12/27 07:20:14;;;;;;;40.70;18.83;;;;;;;-9.43;89.57;100264.25;4980566;28;20285;-88
2021/12/27 07:22:40;;;;;;;45.73;19.83;;;;;;;-9.36;87.48;100267.22;4976141;28;20295;-84
2021/12/27 07:25:07;;;;;;;39.47;16.93;;;;;;;-9.14;86.17;100270.91;4976105;28;20293;-86
2021/12/27 07:27:34;;;;;;;42.03;19.07;;;;;;;-9.17;85.57;100271.59;4978047;28;20300;-87
2021/12/27 07:30:02;;;;;;;44.93;19.80;;;;;;;-8.91;86.76;100272.06;4960477;28;20289;-87
2021/12/27 07:32:29;;;;;;;41.20;18.50;;;;;;;-8.97;86.61;100269.22;4980246;28;20300;-86
2021/12/27 07:34:56;;;;;;;39.23;18.13;;;;;;;-8.88;86.49;100264.56;4964143;28;20293;-85
2021/12/27 07:37:22;;;;;;;42.23;20.03;;;;;;;-8.74;83.93;100270.34;4974431;28;20878;-87
2021/12/27 07:39:49;;;;;;;43.60;18.87;;;;;;;-8.78;84.06;100271.00;4964957;28;20285;-86
2021/12/27 07:42:16;;;;;;;43.83;18.87;;;;;;;-8.77;86.23;100267.63;4979438;28;20300;-87
2021/12/27 07:44:43;;;;;;;50.47;19.57;;;;;;;-8.53;84.03;100271.41;4963546;28;20308;-87
2021/12/27 07:47:10;;;;;;;44.90;19.40;;;;;;;-8.52;81.88;100270.59;4976248;28;20351;-88
2021/12/27 07:49:37;;;;;;;47.83;19.73;;;;;;;-8.55;81.77;100275.59;4956345;28;20340;-87
2021/12/27 07:52:04;;;;;;;38.53;18.63;;;;;;;-8.56;85.01;100269.59;4975122;28;20351;-87
2021/12/27 07:54:31;;;;;;;50.87;21.37;;;;;;;-8.42;85.57;100270.25;4973204;28;20352;-86
2021/12/27 07:56:57;;;;;;;53.90;25.80;;;;;;;-8.33;84.23;100262.97;4981738;28;20300;-87
2021/12/27 07:59:25;;;;;;;47.63;21.03;;;;;;;-8.25;81.61;100274.47;4975127;28;20446;-87
2021/12/27 08:01:52;;;;;;;41.83;20.33;;;;;;;-8.27;83.41;100272.66;4992342;28;20324;-86
2021/12/27 08:04:18;;;;;;;42.77;20.17;;;;;;;-8.17;84.10;100263.72;4976450;28;20296;-86
2021/12/27 08:06:45;;;;;;;45.90;20.33;;;;;;;-8.11;82.41;100264.00;4963215;28;20300;-87
2021/12/27 08:09:12;;;;;;;48.47;20.60;;;;;;;-7.96;80.94;100263.06;4959984;28;20293;-87
2021/12/27 08:11:39;;;;;;;43.20;20.60;;;;;;;-7.98;84.36;100262.09;4978507;28;20289;-87
2021/12/27 08:14:06;;;;;;;42.37;19.23;;;;;;;-7.93;84.35;100258.06;4978780;28;20311;-87
2021/12/27 08:16:33;;;;;;;43.37;18.50;;;;;;;-7.80;84.19;100258.63;4965674;28;20658;-87
2021/12/27 08:18:59;;;;;;;40.27;18.87;;;;;;;-7.81;85.21;100252.63;4974685;28;20296;-88
2021/12/27 08:21:27;;;;;;;41.53;20.10;;;;;;;-7.64;80.94;100255.97;4959907;28;20304;-87
2021/12/27 08:23:53;;;;;;;48.53;20.47;;;;;;;-7.63;81.60;100257.72;4959369;28;20292;-85
2021/12/27 08:26:20;;;;;;;43.87;19.63;;;;;;;-7.78;78.02;100252.75;4970969;28;20290;-87
2021/12/27 08:28:50;;;;;;;49.90;22.40;;;;;;;-7.54;80.63;100247.88;4958195;28;20362;-88
2021/12/27 08:31:16;;;;;;;39.93;19.87;;;;;;;-7.47;79.94;100247.34;4974918;28;20293;-87
2021/12/27 08:33:43;;;;;;;48.40;21.97;;;;;;;-7.43;79.99;100246.66;4975273;28;20293;-88
2021/12/27 08:36:10;;;;;;;38.57;19.83;;;;;;;-7.46;83.30;100251.66;4984036;28;20368;-88
2021/12/27 08:38:37;;;;;;;36.50;18.93;;;;;;;-7.32;81.25;100262.50;4962606;28;20809;-87
2021/12/27 08:41:04;;;;;;;45.93;19.33;;;;;;;-7.32;80.54;100253.94;4969155;28;20285;-87
2021/12/27 08:43:31;;;;;;;43.33;19.30;;;;;;;-7.30;80.63;100250.66;4960316;28;20300;-88
2021/12/27 08:45:59;;;;;;;46.73;20.50;;;;;;;-7.28;78.34;100243.88;4973293;28;20285;-86
2021/12/27 08:48:26;;;;;;;44.80;22.30;;;;;;;-7.23;81.95;100250.13;4971709;28;20352;-85
2021/12/27 08:50:52;;;;;;;51.43;20.40;;;;;;;-7.04;80.67;100244.09;4972419;28;20872;-87
2021/12/27 08:53:20;;;;;;;48.07;21.73;;;;;;;-7.12;81.93;100245.44;4953092;28;20403;-88
2021/12/27 08:55:47;;;;;;;94.43;36.30;;;;;;;-6.95;81.27;100238.47;4973590;28;20301;-86
2021/12/27 08:58:15;;;;;;;48.77;21.57;;;;;;;-7.02;80.69;100239.00;4965966;28;20301;-88
2021/12/27 09:00:42;;;;;;;42.60;20.50;;;;;;;-6.94;77.89;100237.66;4962389;28;20813;-88
2021/12/27 09:03:13;;;;;;;57.23;23.33;;;;;;;-6.91;80.81;100232.63;4971256;28;20286;-88
2021/12/27 09:05:42;;;;;;;47.53;20.60;;;;;;;-6.81;79.38;100240.81;4967429;28;20294;-87
2021/12/27 09:08:09;;;;;;;41.93;21.20;;;;;;;-6.83;80.99;100237.28;4973289;28;20301;-89
2021/12/27 09:10:36;;;;;;;41.63;21.10;;;;;;;-6.76;82.29;100234.97;4988082;28;20720;-86
2021/12/27 09:13:03;;;;;;;50.30;22.97;;;;;;;-6.66;83.24;100226.81;4972855;28;20288;-90
2021/12/27 09:15:30;;;;;;;51.17;22.73;;;;;;;-6.63;83.91;100232.09;4975062;28;20057;-91
2021/12/27 09:17:57;;;;;;;57.17;28.27;;;;;;;-6.56;83.20;100231.50;4975998;28;20293;-90
2021/12/27 09:20:26;;;;;;;60.53;26.40;;;;;;;-6.42;82.11;100226.94;4969966;28;20659;-91
2021/12/27 09:22:53;;;;;;;52.80;22.80;;;;;;;-6.40;81.59;100218.47;4973291;28;20309;-89
2021/12/27 09:25:20;;;;;;;70.50;31.50;;;;;;;-6.37;83.26;100225.44;4958212;28;20066;-90
2021/12/27 09:27:47;;;;;;;52.10;22.13;;;;;;;-6.35;82.23;100224.69;4995304;28;20046;-90
2021/12/27 09:30:14;;;;;;;42.30;20.87;;;;;;;-6.28;78.06;100211.28;4969787;28;20293;-90
2021/12/27 09:32:41;;;;;;;51.80;23.83;;;;;;;-6.30;80.60;100215.47;4974837;28;20053;-90
2021/12/27 09:35:08;;;;;;;46.17;20.63;;;;;;;-6.47;77.26;100218.16;4976017;28;20115;-90
2021/12/27 09:37:34;;;;;;;61.17;29.27;;;;;;;-6.26;77.97;100226.75;4980962;28;20056;-89
2021/12/27 09:40:02;;;;;;;60.90;29.23;;;;;;;-6.22;81.05;100222.59;4978002;28;20507;-90
2021/12/27 09:42:30;;;;;;;62.83;28.50;;;;;;;-6.13;77.10;100222.97;4981000;28;20038;-90
2021/12/27 09:44:57;;;;;;;84.47;38.10;;;;;;;-6.16;80.09;100223.72;4978053;28;20061;-91
2021/12/27 09:47:24;;;;;;;51.50;21.77;;;;;;;-6.03;78.86;100235.38;4961005;28;20069;-91
2021/12/27 09:50:09;;;;;;;44.87;21.67;;;;;;;-5.96;78.06;100219.38;4967116;28;20112;-90
2021/12/27 09:52:36;;;;;;;48.27;22.53;;;;;;;-5.99;80.62;100207.25;4978409;28;20050;-90
2021/12/27 09:55:04;;;;;;;49.10;20.87;;;;;;;-5.97;80.66;100215.91;4978085;28;20050;-90
2021/12/27 09:57:31;;;;;;;47.10;23.83;;;;;;;-6.03;76.91;100213.09;4977260;28;20384;-90
2021/12/27 09:59:58;;;;;;;215.93;80.93;;;;;;;-5.96;79.83;100206.50;4972840;28;20034;-89
2021/12/27 10:02:26;;;;;;;219.40;90.53;;;;;;;-5.99;78.20;100203.78;4980590;28;20037;-91
2021/12/27 10:04:54;;;;;;;94.57;43.33;;;;;;;-6.01;78.79;100195.16;4978779;28;20096;-90
2021/12/27 10:07:23;;;;;;;63.60;29.83;;;;;;;-5.92;77.33;100182.63;4961975;28;20384;-90
2021/12/27 10:09:55;;;;;;;93.03;45.05;;;;;;;-6.03;76.35;100192.53;4979263;28;20483;-89
2021/12/27 10:12:23;;;;;;;51.27;25.70;;;;;;;-5.84;77.24;100185.47;4979547;28;20057;-89
2021/12/27 10:14:57;;;;;;;52.10;24.70;;;;;;;-5.76;81.06;100173.75;4963361;28;20086;-89
2021/12/27 10:17:24;;;;;;;44.33;21.45;;;;;;;-5.82;80.03;100176.09;4975447;28;20298;-89
2021/12/27 10:19:53;;;;;;;43.17;21.20;;;;;;;-5.71;77.84;100183.41;4969249;28;20147;-90
2021/12/27 10:22:23;;;;;;;48.70;23.43;;;;;;;-5.63;78.66;100175.06;4995468;28;20041;-90
2021/12/27 10:24:51;;;;;;;48.17;23.63;;;;;;;-5.62;80.76;100182.00;4963108;28;20042;-91
2021/12/27 10:27:19;;;;;;;45.47;21.13;;;;;;;-5.60;80.26;100188.06;4980182;28;20046;-90
2021/12/27 10:29:46;;;;;;;45.27;21.07;;;;;;;-5.55;80.75;100171.06;4959682;28;20049;-91
2021/12/27 10:32:16;;;;;;;44.17;20.77;;;;;;;-5.43;80.28;100164.69;4974676;28;20047;-89
2021/12/27 10:34:49;;;;;;;50.93;23.23;;;;;;;-5.48;79.16;100155.03;4987139;28;20093;-90
2021/12/27 10:37:26;;;;;;;91.37;34.00;;;;;;;-5.55;77.36;100155.63;4973820;28;20053;-89
2021/12/27 10:39:57;;;;;;;55.80;24.57;;;;;;;-5.46;79.89;100149.16;4964771;28;20042;-90
2021/12/27 10:42:31;;;;;;;60.93;26.20;;;;;;;-5.40;77.85;100146.75;4994160;28;20045;-89
2021/12/27 10:45:00;;;;;;;44.50;21.88;;;;;;;-5.40;77.34;100133.03;4977136;28;20045;-89
2021/12/27 10:47:39;;;;;;;86.87;35.73;;;;;;;-5.45;76.73;100132.88;4962749;28;20037;-90
2021/12/27 10:50:16;;;;;;;44.33;22.57;;;;;;;-5.41;79.22;100139.00;4976797;28;20104;-83
2021/12/27 10:52:54;;;;;;;60.90;30.90;;;;;;;-5.36;79.71;100136.59;4961570;28;20111;-89
2021/12/27 10:55:27;;;;;;;48.73;25.00;;;;;;;-5.30;80.47;100131.63;4969706;28;20499;-87
2021/12/27 10:58:23;;;;;;;53.50;22.13;;;;;;;-5.27;81.32;100142.94;4963334;28;20048;-89
2021/12/27 11:01:04;;;;;;;53.37;25.53;;;;;;;-5.28;80.69;100156.63;4964009;28;20802;-87
2021/12/27 11:03:36;;;;;;;43.80;21.40;;;;;;;-5.19;80.63;100151.78;4981367;28;20062;-89
2021/12/27 11:06:09;;;;;;;39.63;20.17;;;;;;;-5.07;78.68;100151.31;4992470;28;20053;-87
2021/12/27 11:08:45;;;;;;;42.87;22.40;;;;;;;-4.99;80.03;100154.16;4962240;28;20073;-89
2021/12/27 11:11:17;;;;;;;50.33;21.40;;;;;;;-5.04;79.06;100143.72;4960039;28;20049;-89
2021/12/27 11:13:48;;;;;;;44.03;20.90;;;;;;;-5.02;78.10;100144.63;4979085;28;20045;-88